Time;durP1;ratioP1;P1;durP2;ratioP2;P2;SDS_P1;SDS_P2;PMS_P1;PMS_P2;Temp;Humidity;BMP_temperature;BMP_pressure;BME280_temperature;BME280_humidity;BME280_pressure;Samples;Min_cycle;Max_cycle;Signal;HPM_P1;HPM_P2
2024/01/05 00:01:36;;;;;;;25.83;7.65;;;;;;;5.89;100.00;99740.16;4983554;28;20452;-79
2024/01/05 00:04:01;;;;;;;23.85;7.15;;;;;;;5.88;100.00;99740.25;4983820;28;20042;-80
2024/01/05 00:06:27;;;;;;;23.90;7.60;;;;;;;5.92;100.00;99740.06;4983785;28;20050;-80
2024/01/05 00:08:52;;;;;;;31.17;8.25;;;;;;;5.90;100.00;99727.84;4983159;28;20042;-79
2024/01/05 00:11:19;;;;;;;21.73;7.88;;;;;;;5.95;100.00;99733.78;4985342;28;20034;-80
2024/01/05 00:13:45;;;;;;;27.48;8.25;;;;;;;5.98;100.00;99731.00;4981944;28;20038;-80
2024/01/05 00:16:21;;;;;;;25.23;8.07;;;;;;;5.97;100.00;99729.25;4985998;28;20038;-79
2024/01/05 00:18:47;;;;;;;27.92;7.60;;;;;;;6.01;100.00;99722.03;4986434;28;20121;-79
2024/01/05 00:21:24;;;;;;;28.95;7.53;;;;;;;5.99;100.00;99712.41;4984270;28;20049;-79
2024/01/05 00:23:51;;;;;;;25.63;7.20;;;;;;;6.04;100.00;99708.69;4992411;28;20042;-79
2024/01/05 00:26:18;;;;;;;26.85;6.75;;;;;;;6.08;100.00;99716.38;4978083;28;20022;-80
2024/01/05 00:28:44;;;;;;;26.60;7.30;;;;;;;6.08;100.00;99713.75;4971759;28;20307;-79
2024/01/05 00:31:11;;;;;;;28.67;7.80;;;;;;;6.10;100.00;99709.22;4980697;28;20108;-79
2024/01/05 00:33:37;;;;;;;20.38;6.82;;;;;;;6.13;100.00;99708.22;4982891;28;20084;-78
2024/01/05 00:36:04;;;;;;;21.80;6.93;;;;;;;6.09;100.00;99698.75;4982648;28;20038;-80
2024/01/05 00:38:29;;;;;;;23.40;7.60;;;;;;;6.12;100.00;99703.88;4983497;28;20085;-80
2024/01/05 00:40:55;;;;;;;22.05;7.40;;;;;;;6.05;100.00;99683.97;4983208;28;20072;-79
2024/01/05 00:43:20;;;;;;;26.88;8.15;;;;;;;6.16;100.00;99700.16;4982742;28;20645;-80
2024/01/05 00:45:45;;;;;;;22.50;7.20;;;;;;;6.15;100.00;99682.59;4983472;28;20038;-81
2024/01/05 00:48:11;;;;;;;25.20;7.28;;;;;;;6.05;100.00;99676.06;4979658;28;20130;-79
2024/01/05 00:50:36;;;;;;;24.60;7.47;;;;;;;6.17;100.00;99689.50;4981355;28;20273;-79
2024/01/05 00:53:02;;;;;;;26.77;7.97;;;;;;;6.17;100.00;99684.22;4983269;28;20442;-80
2024/01/05 00:55:27;;;;;;;24.40;7.05;;;;;;;6.19;100.00;99689.44;4953468;28;20066;-79
2024/01/05 00:57:52;;;;;;;21.00;7.07;;;;;;;6.17;100.00;99681.56;4973457;28;20038;-79
2024/01/05 01:00:18;;;;;;;30.40;8.07;;;;;;;6.20;100.00;99677.94;4960258;28;20604;-79
2024/01/05 01:02:43;;;;;;;20.70;6.95;;;;;;;6.19;100.00;99669.16;4973695;28;20414;-79
2024/01/05 01:05:08;;;;;;;22.15;6.85;;;;;;;6.11;100.00;99663.41;4981873;28;20105;-79
2024/01/05 01:07:34;;;;;;;20.92;7.13;;;;;;;6.14;100.00;99672.94;4982094;28;20026;-78
2024/01/05 01:10:00;;;;;;;17.25;6.25;;;;;;;6.11;100.00;99658.13;4982254;28;20046;-79
2024/01/05 01:12:26;;;;;;;24.83;6.72;;;;;;;5.99;100.00;99667.53;4964470;28;20034;-80
2024/01/05 01:14:52;;;;;;;22.55;6.47;;;;;;;5.91;100.00;99663.53;4964094;28;20038;-80
2024/01/05 01:17:18;;;;;;;21.98;6.80;;;;;;;5.90;100.00;99659.19;4981083;28;20038;-79
2024/01/05 01:19:43;;;;;;;27.48;6.88;;;;;;;5.82;100.00;99656.06;4982524;28;20403;-80
2024/01/05 01:22:09;;;;;;;18.23;5.60;;;;;;;5.81;100.00;99635.84;4977970;28;20100;-79
2024/01/05 01:24:34;;;;;;;22.13;5.95;;;;;;;5.93;100.00;99651.97;4981673;28;20034;-80
2024/01/05 01:26:59;;;;;;;17.73;5.70;;;;;;;5.94;100.00;99644.94;4962646;28;20034;-79
2024/01/05 01:29:25;;;;;;;18.67;5.80;;;;;;;5.86;100.00;99642.63;4979546;28;20300;-80
2024/01/05 01:31:50;;;;;;;22.27;6.85;;;;;;;5.82;100.00;99625.25;4982202;28;20069;-79
2024/01/05 01:34:16;;;;;;;13.85;5.22;;;;;;;5.87;100.00;99633.78;4987197;28;20034;-80
2024/01/05 01:36:41;;;;;;;22.27;6.05;;;;;;;5.90;100.00;99627.50;4980594;28;20038;-79
2024/01/05 01:39:06;;;;;;;23.77;6.60;;;;;;;5.93;100.00;99628.19;4961855;28;20162;-79
2024/01/05 01:41:33;;;;;;;18.60;5.88;;;;;;;5.99;100.00;99637.63;4982677;28;20034;-79
2024/01/05 01:43:58;;;;;;;21.65;6.53;;;;;;;5.87;100.00;99602.09;4980797;28;20042;-80
2024/01/05 01:46:24;;;;;;;19.25;5.40;;;;;;;6.05;100.00;99626.72;4980979;28;20034;-79
2024/01/05 01:48:50;;;;;;;15.68;6.10;;;;;;;5.98;100.00;99613.00;4978786;28;20042;-79
2024/01/05 01:51:16;;;;;;;17.40;5.68;;;;;;;6.06;100.00;99619.66;4976539;28;20225;-79
2024/01/05 01:53:42;;;;;;;18.83;5.95;;;;;;;6.03;100.00;99604.81;4979658;28;20502;-79
2024/01/05 01:56:11;;;;;;;15.15;4.95;;;;;;;6.01;100.00;99601.41;4976099;28;20142;-79
2024/01/05 01:58:42;;;;;;;18.23;5.07;;;;;;;6.04;100.00;99606.53;4979061;28;20046;-79
2024/01/05 02:01:08;;;;;;;24.70;6.18;;;;;;;6.07;100.00;99603.75;4980071;28;20108;-81
2024/01/05 02:03:34;;;;;;;20.77;5.68;;;;;;;6.07;100.00;99600.25;4963082;28;20042;-79
2024/01/05 02:06:00;;;;;;;16.65;5.38;;;;;;;6.07;100.00;99598.44;4980786;28;20118;-79
2024/01/05 02:08:26;;;;;;;18.30;5.68;;;;;;;6.00;100.00;99591.78;4981497;28;20050;-79
2024/01/05 02:10:52;;;;;;;17.45;4.95;;;;;;;6.02;100.00;99581.13;4982068;28;20117;-79
2024/01/05 02:13:18;;;;;;;15.30;5.00;;;;;;;5.98;100.00;99583.94;4981141;28;20543;-79
2024/01/05 02:15:43;;;;;;;13.07;5.07;;;;;;;5.93;100.00;99580.66;4981483;28;20062;-79
2024/01/05 02:18:12;;;;;;;12.27;4.63;;;;;;;5.82;100.00;99561.88;4982615;28;20282;-79
2024/01/05 02:20:38;;;;;;;13.02;4.55;;;;;;;5.85;100.00;99555.56;4953231;28;20053;-79
2024/01/05 02:23:07;;;;;;;14.70;5.45;;;;;;;5.79;100.00;99562.00;4982493;28;20121;-79
2024/01/05 02:25:33;;;;;;;13.45;4.93;;;;;;;5.65;100.00;99540.75;4981315;28;20034;-79
2024/01/05 02:27:58;;;;;;;15.82;4.93;;;;;;;5.57;100.00;99541.16;4974212;28;20061;-79
2024/01/05 02:30:24;;;;;;;14.38;5.10;;;;;;;5.60;100.00;99546.28;4977885;28;20070;-79
2024/01/05 02:32:49;;;;;;;16.35;5.45;;;;;;;5.51;100.00;99541.44;4980561;28;20542;-78
2024/01/05 02:35:14;;;;;;;13.63;4.85;;;;;;;5.53;100.00;99546.66;4975332;28;20488;-79
2024/01/05 02:37:45;;;;;;;10.45;4.47;;;;;;;5.51;100.00;99544.09;4981860;28;20056;-79
2024/01/05 02:40:11;;;;;;;16.45;4.85;;;;;;;5.42;100.00;99547.19;4980248;28;20050;-79
2024/01/05 02:42:37;;;;;;;11.32;4.65;;;;;;;5.36;100.00;99539.59;4980977;28;20271;-79
2024/01/05 02:45:02;;;;;;;14.80;4.88;;;;;;;5.36;100.00;99542.25;4979365;28;20031;-79
2024/01/05 02:47:28;;;;;;;16.40;4.45;;;;;;;5.35;100.00;99530.84;4980208;28;20125;-79
2024/01/05 02:49:53;;;;;;;12.20;4.72;;;;;;;5.37;100.00;99528.09;4952702;28;20035;-79
2024/01/05 02:52:18;;;;;;;19.95;5.03;;;;;;;5.38;100.00;99522.75;4979383;28;20876;-79
2024/01/05 02:54:44;;;;;;;13.75;5.07;;;;;;;5.35;100.00;99512.38;4982612;28;20026;-79
2024/01/05 02:57:10;;;;;;;11.43;4.82;;;;;;;5.37;100.00;99517.56;4979731;28;20038;-79
2024/01/05 02:59:36;;;;;;;9.75;4.38;;;;;;;5.33;100.00;99506.28;4979717;28;20066;-79
2024/01/05 03:02:01;;;;;;;15.23;4.95;;;;;;;5.41;100.00;99511.19;4980988;28;20124;-79
2024/01/05 03:04:26;;;;;;;12.65;5.03;;;;;;;5.45;100.00;99508.31;4976289;28;20125;-79
2024/01/05 03:06:52;;;;;;;14.75;4.88;;;;;;;5.48;100.00;99509.97;4987186;28;20665;-79
2024/01/05 03:09:17;;;;;;;14.10;5.45;;;;;;;5.44;100.00;99498.69;4984131;28;20034;-79
2024/01/05 03:11:43;;;;;;;14.02;5.05;;;;;;;5.52;100.00;99506.22;4984577;28;20121;-79
2024/01/05 03:14:08;;;;;;;12.68;4.97;;;;;;;5.53;100.00;99497.38;4984772;28;20113;-79
2024/01/05 03:16:33;;;;;;;13.20;5.15;;;;;;;5.55;100.00;99499.91;4984153;28;20040;-79
2024/01/05 03:18:59;;;;;;;14.02;5.28;;;;;;;5.53;100.00;99501.81;4984532;28;20054;-79
2024/01/05 03:21:24;;;;;;;12.90;4.53;;;;;;;5.50;100.00;99490.44;4966207;28;20085;-79
2024/01/05 03:23:49;;;;;;;11.95;4.75;;;;;;;5.49;100.00;99486.13;4984229;28;20034;-79
2024/01/05 03:26:15;;;;;;;9.32;4.20;;;;;;;5.57;100.00;99498.91;4984394;28;20387;-79
2024/01/05 03:28:40;;;;;;;11.55;4.20;;;;;;;5.56;100.00;99491.94;4982994;28;20495;-79
2024/01/05 03:31:13;;;;;;;15.38;4.60;;;;;;;5.58;100.00;99489.22;4978720;28;20517;-79
2024/01/05 03:33:39;;;;;;;14.45;4.40;;;;;;;5.57;100.00;99487.50;4984259;28;20124;-79
2024/01/05 03:36:05;;;;;;;13.80;4.97;;;;;;;5.53;100.00;99475.41;4984168;28;20030;-79
2024/01/05 03:38:30;;;;;;;15.20;4.80;;;;;;;5.57;100.00;99476.97;4982546;28;20050;-79
2024/01/05 03:40:56;;;;;;;11.93;4.40;;;;;;;5.54;100.00;99477.97;4982931;28;20038;-79
2024/01/05 03:43:22;;;;;;;13.05;4.50;;;;;;;5.53;100.00;99472.78;4984351;28;20030;-79
2024/01/05 03:45:47;;;;;;;11.15;4.20;;;;;;;5.47;100.00;99452.81;4966282;28;20491;-79
2024/01/05 03:48:14;;;;;;;10.43;3.92;;;;;;;5.49;100.00;99458.88;4984028;28;20137;-79
2024/01/05 03:50:39;;;;;;;10.23;4.38;;;;;;;5.41;100.00;99443.44;4984330;28;20081;-79
2024/01/05 03:53:05;;;;;;;12.32;4.32;;;;;;;5.11;100.00;99392.28;4982836;28;20487;-79
2024/01/05 03:55:30;;;;;;;14.32;4.63;;;;;;;5.46;100.00;99449.31;4981893;28;20058;-78
2024/01/05 03:57:56;;;;;;;11.45;4.63;;;;;;;5.46;100.00;99448.47;4984197;28;20613;-79
2024/01/05 04:00:21;;;;;;;14.15;3.95;;;;;;;5.44;100.00;99443.28;4972089;28;20037;-79
2024/01/05 04:02:46;;;;;;;13.48;3.97;;;;;;;5.41;100.00;99434.66;4982894;28;20042;-79
2024/01/05 04:05:12;;;;;;;10.60;4.07;;;;;;;5.37;100.00;99433.97;4977242;28;20744;-79
2024/01/05 04:07:38;;;;;;;12.45;4.32;;;;;;;5.26;100.00;99436.31;4983209;28;20121;-79
2024/01/05 04:10:05;;;;;;;12.95;4.57;;;;;;;5.20;100.00;99431.34;4979940;28;20633;-79
2024/01/05 04:12:30;;;;;;;12.15;4.05;;;;;;;5.14;100.00;99421.97;4983704;28;20038;-79
2024/01/05 04:14:56;;;;;;;10.68;3.70;;;;;;;5.07;100.00;99412.66;4982796;28;20034;-79
2024/01/05 04:17:21;;;;;;;13.10;3.95;;;;;;;5.05;100.00;99406.59;4983092;28;20042;-79
2024/01/05 04:19:47;;;;;;;10.98;3.83;;;;;;;5.01;100.00;99399.78;4983616;28;20607;-79
2024/01/05 04:22:12;;;;;;;12.50;3.67;;;;;;;5.09;100.00;99397.59;4983333;28;20148;-79
2024/01/05 04:24:38;;;;;;;8.55;3.45;;;;;;;4.98;100.00;99392.91;4982587;28;20058;-79
2024/01/05 04:27:03;;;;;;;8.10;3.42;;;;;;;5.03;100.00;99402.34;4983548;28;20495;-79
2024/01/05 04:29:29;;;;;;;9.73;3.63;;;;;;;5.07;100.00;99393.38;4978562;28;20062;-79
2024/01/05 04:31:54;;;;;;;12.35;4.40;;;;;;;5.07;100.00;99386.31;4966232;28;20682;-78
2024/01/05 04:34:19;;;;;;;13.40;3.83;;;;;;;5.10;100.00;99387.91;4984585;28;20039;-79
2024/01/05 04:36:45;;;;;;;13.98;3.95;;;;;;;5.14;100.00;99385.06;4981073;28;20046;-78
2024/01/05 04:39:10;;;;;;;10.82;4.05;;;;;;;5.17;100.00;99381.38;4977947;28;20239;-79
2024/01/05 04:41:35;;;;;;;9.02;3.85;;;;;;;5.19;100.00;99376.91;4959363;28;20027;-79
2024/01/05 04:44:01;;;;;;;11.25;3.83;;;;;;;5.14;100.00;99358.69;4981377;28;20041;-79
2024/01/05 04:46:26;;;;;;;8.55;3.55;;;;;;;5.17;100.00;99353.22;4975783;28;20453;-79
2024/01/05 04:48:51;;;;;;;11.45;3.97;;;;;;;5.21;100.00;99356.56;4980949;28;20554;-79
2024/01/05 04:51:17;;;;;;;9.13;3.30;;;;;;;5.24;100.00;99361.69;4981487;28;20038;-79
2024/01/05 04:53:42;;;;;;;10.90;4.03;;;;;;;5.27;100.00;99353.63;4973639;28;20509;-79
2024/01/05 04:56:08;;;;;;;9.00;3.67;;;;;;;5.27;100.00;99352.72;4975760;28;20041;-78
2024/01/05 04:58:33;;;;;;;9.00;3.55;;;;;;;5.13;100.00;99330.59;4975835;28;20054;-79
2024/01/05 05:00:58;;;;;;;9.57;3.45;;;;;;;5.19;100.00;99330.28;4972875;28;20039;-79
2024/01/05 05:03:26;;;;;;;5.70;3.00;;;;;;;5.29;100.00;99351.72;4972680;28;20554;-79
2024/01/05 05:05:51;;;;;;;7.53;3.30;;;;;;;5.31;100.00;99339.34;4978163;28;20495;-79
2024/01/05 05:08:16;;;;;;;13.43;3.63;;;;;;;5.35;100.00;99346.16;4974458;28;20039;-79
2024/01/05 05:10:42;;;;;;;5.28;3.00;;;;;;;5.38;100.00;99338.03;4980527;28;20065;-80
2024/01/05 05:13:09;;;;;;;5.50;2.90;;;;;;;5.41;100.00;99344.97;4954139;28;20053;-78
2024/01/05 05:15:34;;;;;;;12.88;3.20;;;;;;;5.40;100.00;99333.56;4974212;28;20030;-79
2024/01/05 05:18:00;;;;;;;9.50;2.97;;;;;;;5.46;100.00;99340.28;4980347;28;20487;-79
2024/01/05 05:20:25;;;;;;;12.63;3.50;;;;;;;5.47;100.00;99337.53;4961761;28;20042;-79
2024/01/05 05:22:50;;;;;;;7.40;3.15;;;;;;;5.49;100.00;99337.47;4979092;28;20122;-79
2024/01/05 05:25:16;;;;;;;11.30;3.38;;;;;;;5.42;100.00;99312.34;4980923;28;20042;-79
2024/01/05 05:27:41;;;;;;;10.73;3.67;;;;;;;5.53;100.00;99336.38;4963200;28;20809;-79
2024/01/05 05:30:09;;;;;;;6.93;3.30;;;;;;;5.54;100.00;99337.22;4977034;28;20208;-79
2024/01/05 05:32:34;;;;;;;8.27;3.75;;;;;;;5.54;100.00;99331.94;4980055;28;20041;-79
2024/01/05 05:35:00;;;;;;;10.00;3.08;;;;;;;5.48;100.00;99327.88;4970485;28;20034;-79
2024/01/05 05:37:25;;;;;;;9.63;3.25;;;;;;;5.54;100.00;99324.03;4969672;28;20046;-79
2024/01/05 05:39:51;;;;;;;7.07;2.90;;;;;;;5.56;100.00;99330.94;4975889;28;20077;-79
2024/01/05 05:42:16;;;;;;;7.65;2.67;;;;;;;5.58;100.00;99336.13;4978079;28;20171;-79
2024/01/05 05:44:41;;;;;;;8.13;2.65;;;;;;;5.56;100.00;99330.06;4974545;28;20246;-79
2024/01/05 05:47:07;;;;;;;6.38;2.53;;;;;;;5.54;100.00;99337.22;4972829;28;20876;-79
2024/01/05 05:49:32;;;;;;;12.27;2.88;;;;;;;5.54;100.00;99330.16;4972307;28;20431;-80
2024/01/05 05:51:57;;;;;;;10.80;3.10;;;;;;;5.57;100.00;99327.38;4984820;28;20049;-79
2024/01/05 05:54:23;;;;;;;8.13;2.95;;;;;;;5.58;100.00;99326.41;4986845;28;20164;-79
2024/01/05 05:56:48;;;;;;;8.50;3.05;;;;;;;5.61;100.00;99330.69;4969412;28;20093;-79
2024/01/05 05:59:13;;;;;;;8.82;3.67;;;;;;;5.67;100.00;99325.06;4967499;28;20088;-79
2024/01/05 06:01:39;;;;;;;10.90;3.00;;;;;;;5.73;100.00;99332.66;4975691;28;20170;-79
2024/01/05 06:04:06;;;;;;;7.13;2.13;;;;;;;5.72;100.00;99344.97;4973711;28;20038;-78
2024/01/05 06:06:31;;;;;;;5.47;2.38;;;;;;;5.77;100.00;99346.53;4971550;28;20116;-78
2024/01/05 06:08:56;;;;;;;4.28;1.85;;;;;;;5.82;100.00;99337.44;4980814;28;20136;-79
2024/01/05 06:11:26;;;;;;;4.22;2.00;;;;;;;5.73;100.00;99322.94;4980103;28;20371;-79
2024/01/05 06:13:51;;;;;;;3.38;2.00;;;;;;;5.78;100.00;99354.38;4977764;28;20492;-79
2024/01/05 06:16:17;;;;;;;2.90;1.88;;;;;;;5.75;100.00;99338.69;4975931;28;20045;-79
2024/01/05 06:18:43;;;;;;;2.05;1.73;;;;;;;5.66;100.00;99333.94;4971325;28;20042;-79
2024/01/05 06:21:08;;;;;;;2.95;1.58;;;;;;;5.74;100.00;99334.34;4977072;28;20046;-79
2024/01/05 06:23:34;;;;;;;3.00;1.63;;;;;;;5.68;100.00;99332.88;4977729;28;20030;-79
2024/01/05 06:25:59;;;;;;;2.35;1.50;;;;;;;5.67;100.00;99323.28;4972450;28;20042;-78
2024/01/05 06:28:24;;;;;;;5.03;1.65;;;;;;;5.68;100.00;99337.31;4969246;28;20790;-79
2024/01/05 06:30:50;;;;;;;2.75;1.30;;;;;;;5.72;100.00;99333.56;4973754;28;20042;-78
2024/01/05 06:33:15;;;;;;;2.38;1.38;;;;;;;5.88;100.00;99341.50;4971669;28;20408;-78
2024/01/05 06:35:41;;;;;;;3.92;1.60;;;;;;;5.81;100.00;99327.81;4980808;28;20157;-79
2024/01/05 06:38:06;;;;;;;1.85;1.60;;;;;;;5.81;100.00;99338.38;4980006;28;20051;-78
2024/01/05 06:40:32;;;;;;;2.80;1.45;;;;;;;5.83;100.00;99338.28;4981646;28;20042;-78
2024/01/05 06:42:57;;;;;;;3.25;1.50;;;;;;;5.83;100.00;99340.91;4982583;28;20036;-78
2024/01/05 06:45:23;;;;;;;1.30;1.13;;;;;;;5.76;100.00;99345.66;4973554;28;20030;-78
2024/01/05 06:47:49;;;;;;;1.75;1.50;;;;;;;5.74;100.00;99329.06;4986053;28;20117;-78
2024/01/05 06:50:14;;;;;;;1.30;1.10;;;;;;;5.85;100.00;99336.38;4970923;28;20034;-78
2024/01/05 06:52:40;;;;;;;2.10;1.30;;;;;;;5.73;100.00;99337.94;4976700;28;20507;-78
2024/01/05 06:55:05;;;;;;;1.10;1.00;;;;;;;5.92;100.00;99349.19;4981373;28;20030;-79
2024/01/05 06:57:31;;;;;;;1.23;1.13;;;;;;;5.82;100.00;99347.16;4979549;28;20854;-78
2024/01/05 06:59:57;;;;;;;1.70;1.10;;;;;;;5.70;100.00;99340.75;4969368;28;20046;-79
2024/01/05 07:02:22;;;;;;;1.00;0.98;;;;;;;5.75;100.00;99349.25;4977323;28;20041;-78
2024/01/05 07:04:48;;;;;;;1.13;1.02;;;;;;;5.69;100.00;99339.03;4977862;28;20042;-78
2024/01/05 07:07:13;;;;;;;2.10;1.05;;;;;;;5.75;100.00;99341.34;4979987;28;20061;-78
2024/01/05 07:09:38;;;;;;;1.40;1.17;;;;;;;5.72;100.00;99347.63;4969137;28;20125;-79
2024/01/05 07:12:04;;;;;;;1.20;0.98;;;;;;;5.73;100.00;99338.78;4980657;28;20088;-78
2024/01/05 07:14:29;;;;;;;1.90;1.40;;;;;;;5.74;100.00;99350.19;4980257;28;20045;-78
2024/01/05 07:16:56;;;;;;;1.10;1.00;;;;;;;5.63;100.00;99332.28;4979211;28;20038;-78
2024/01/05 07:19:21;;;;;;;3.53;1.25;;;;;;;5.62;100.00;99342.94;4978713;28;20129;-78
2024/01/05 07:21:47;;;;;;;1.20;1.10;;;;;;;5.67;100.00;99354.09;4980694;28;20121;-78
2024/01/05 07:24:18;;;;;;;2.42;1.15;;;;;;;5.63;100.00;99355.19;4980697;28;20134;-79
2024/01/05 07:26:44;;;;;;;1.83;1.33;;;;;;;5.56;100.00;99335.34;4979961;28;20042;-78
2024/01/05 07:29:09;;;;;;;1.58;1.20;;;;;;;5.56;100.00;99341.50;4975682;28;20038;-78
2024/01/05 07:31:35;;;;;;;1.52;1.10;;;;;;;5.57;100.00;99351.13;4970327;28;20074;-78
2024/01/05 07:34:01;;;;;;;2.03;1.38;;;;;;;5.40;100.00;99348.53;4975901;28;20046;-78
2024/01/05 07:36:26;;;;;;;1.77;1.20;;;;;;;5.43;100.00;99358.91;4976157;28;20035;-78
2024/01/05 07:38:51;;;;;;;2.97;1.25;;;;;;;5.29;100.00;99343.81;4980519;28;20045;-79
2024/01/05 07:41:18;;;;;;;1.45;1.20;;;;;;;5.45;100.00;99371.09;4979994;28;20050;-77
2024/01/05 07:43:43;;;;;;;2.75;1.30;;;;;;;5.44;100.00;99364.13;4980733;28;20949;-76
2024/01/05 07:46:09;;;;;;;2.03;1.42;;;;;;;5.47;100.00;99369.22;4979906;28;20041;-77
2024/01/05 07:48:34;;;;;;;2.63;1.25;;;;;;;5.47;100.00;99368.38;4983818;28;20428;-77
2024/01/05 07:51:03;;;;;;;2.25;1.40;;;;;;;5.52;100.00;99365.47;4982815;28;20364;-77
2024/01/05 07:53:29;;;;;;;2.42;1.30;;;;;;;5.53;100.00;99364.56;4982589;28;20034;-77
2024/01/05 07:55:54;;;;;;;2.10;1.67;;;;;;;5.54;100.00;99382.94;4983884;28;20034;-78
2024/01/05 07:58:20;;;;;;;1.30;1.20;;;;;;;5.58;100.00;99373.06;4973292;28;20386;-77
2024/01/05 08:00:45;;;;;;;2.10;1.30;;;;;;;5.54;100.00;99374.19;4979231;28;20609;-79
2024/01/05 08:03:14;;;;;;;1.40;1.17;;;;;;;5.57;100.00;99374.88;4979989;28;20061;-78
2024/01/05 08:05:42;;;;;;;1.40;1.10;;;;;;;5.54;100.00;99371.53;4970927;28;20022;-78
2024/01/05 08:08:07;;;;;;;2.13;1.30;;;;;;;5.49;100.00;99370.00;4983645;28;20061;-78
2024/01/05 08:10:32;;;;;;;1.40;1.30;;;;;;;5.41;100.00;99366.06;4984028;28;20047;-78
2024/01/05 08:12:59;;;;;;;1.65;1.20;;;;;;;5.46;100.00;99370.16;4982983;28;20450;-78
2024/01/05 08:15:24;;;;;;;1.58;1.30;;;;;;;5.38;100.00;99355.66;4982846;28;20099;-78
2024/01/05 08:17:50;;;;;;;1.52;1.20;;;;;;;5.29;100.00;99361.44;4983304;28;20077;-77
2024/01/05 08:20:15;;;;;;;1.92;1.30;;;;;;;5.31;100.00;99365.72;4983569;28;20096;-78
2024/01/05 08:22:41;;;;;;;2.17;1.30;;;;;;;5.27;100.00;99361.53;4983884;28;20217;-78
2024/01/05 08:25:07;;;;;;;2.15;1.50;;;;;;;5.30;100.00;99358.72;4982838;28;20039;-77
2024/01/05 08:27:32;;;;;;;2.55;1.50;;;;;;;5.32;100.00;99356.84;4982400;28;20104;-79
2024/01/05 08:29:57;;;;;;;1.60;1.40;;;;;;;5.36;100.00;99362.81;4977580;28;20108;-78
2024/01/05 08:32:23;;;;;;;3.10;1.60;;;;;;;5.37;100.00;99369.81;4983277;28;20501;-79
2024/01/05 08:34:48;;;;;;;1.75;1.20;;;;;;;5.37;100.00;99362.72;4983363;28;20038;-79
2024/01/05 08:37:14;;;;;;;2.65;1.58;;;;;;;5.33;100.00;99379.66;4983301;28;20173;-79
2024/01/05 08:39:39;;;;;;;1.40;1.30;;;;;;;5.28;100.00;99367.66;4983969;28;20671;-78
2024/01/05 08:42:08;;;;;;;1.23;1.13;;;;;;;5.18;100.00;99370.78;4954183;28;20037;-79
2024/01/05 08:44:35;;;;;;;1.30;1.20;;;;;;;5.15;100.00;99373.56;4980397;28;20676;-79
2024/01/05 08:47:00;;;;;;;2.15;1.40;;;;;;;5.06;100.00;99373.16;4983768;28;20125;-79
2024/01/05 08:49:26;;;;;;;1.80;1.30;;;;;;;5.05;100.00;99387.28;4982699;28;20535;-78
2024/01/05 08:51:52;;;;;;;1.40;1.30;;;;;;;4.94;100.00;99398.41;4986535;28;20161;-79
2024/01/05 08:54:18;;;;;;;1.40;1.30;;;;;;;4.90;100.00;99392.44;4982505;28;20042;-78
2024/01/05 08:56:44;;;;;;;1.30;1.20;;;;;;;4.81;100.00;99397.28;4983092;28;20112;-79
2024/01/05 08:59:10;;;;;;;3.42;1.50;;;;;;;4.84;100.00;99399.78;4981636;28;20541;-79
2024/01/05 09:01:36;;;;;;;1.70;1.33;;;;;;;4.74;100.00;99404.69;4982805;28;20125;-79
2024/01/05 09:04:02;;;;;;;1.60;1.30;;;;;;;4.69;100.00;99404.06;4975853;28;20104;-81
2024/01/05 09:06:28;;;;;;;1.80;1.50;;;;;;;4.64;100.00;99413.94;4982473;28;20491;-79
2024/01/05 09:08:53;;;;;;;1.85;1.40;;;;;;;4.52;100.00;99409.31;4960628;28;20109;-80
2024/01/05 09:11:19;;;;;;;5.82;1.58;;;;;;;4.46;100.00;99416.56;4981840;28;20157;-79
2024/01/05 09:13:44;;;;;;;3.40;1.50;;;;;;;4.43;100.00;99421.13;4961889;28;20049;-80
2024/01/05 09:16:09;;;;;;;2.90;1.55;;;;;;;4.39;100.00;99420.44;4960836;28;20046;-80
2024/01/05 09:18:37;;;;;;;1.20;1.10;;;;;;;4.32;100.00;99432.19;4963022;28;20031;-80
2024/01/05 09:21:03;;;;;;;2.60;1.52;;;;;;;4.18;100.00;99419.69;4951779;28;20026;-85
2024/01/05 09:23:29;;;;;;;2.05;1.30;;;;;;;4.13;100.00;99407.63;4963129;28;20645;-85
2024/01/05 09:25:55;;;;;;;1.77;1.38;;;;;;;4.18;100.00;99421.44;4982402;28;20037;-86
2024/01/05 09:28:22;;;;;;;1.77;1.60;;;;;;;4.03;100.00;99403.75;4982310;28;20038;-86
2024/01/05 09:30:48;;;;;;;3.30;1.60;;;;;;;4.13;100.00;99426.94;4958905;28;20045;-86
2024/01/05 09:33:14;;;;;;;2.72;1.65;;;;;;;4.14;100.00;99433.03;4982752;28;20073;-82
2024/01/05 09:35:39;;;;;;;1.70;1.60;;;;;;;4.11;100.00;99412.16;4981902;28;20074;-85
2024/01/05 09:38:04;;;;;;;2.15;1.55;;;;;;;4.17;100.00;99432.91;4980466;28;20053;-83
2024/01/05 09:40:30;;;;;;;2.83;1.80;;;;;;;4.15;100.00;99422.47;4981386;28;20065;-83
2024/01/05 09:42:57;;;;;;;3.55;1.80;;;;;;;4.01;100.00;99401.16;4984943;28;20561;-81
2024/01/05 09:45:24;;;;;;;2.65;1.70;;;;;;;4.20;100.00;99438.03;4981701;28;20108;-83
2024/01/05 09:47:50;;;;;;;2.83;2.00;;;;;;;4.24;100.00;99450.13;4979620;28;20042;-88
2024/01/05 09:50:16;;;;;;;3.53;1.95;;;;;;;4.25;100.00;99436.03;4963908;28;20038;-87
2024/01/05 09:52:45;;;;;;;2.63;1.90;;;;;;;4.16;100.00;99423.31;4977249;28;20043;-86
2024/01/05 09:55:11;;;;;;;5.25;2.55;;;;;;;4.30;100.00;99446.34;4960489;28;20063;-86
2024/01/05 09:57:42;;;;;;;3.10;2.10;;;;;;;4.22;100.00;99425.63;4961902;28;20053;-84
2024/01/05 10:00:12;;;;;;;2.65;2.25;;;;;;;4.32;100.00;99437.47;4978682;28;20290;-88
2024/01/05 10:02:44;;;;;;;3.40;2.45;;;;;;;4.35;100.00;99433.84;4977609;28;20034;-85
2024/01/05 10:05:11;;;;;;;2.55;2.35;;;;;;;4.30;100.00;99436.66;4946495;28;20027;-89
2024/01/05 10:07:43;;;;;;;2.60;2.03;;;;;;;4.35;100.00;99432.06;4957109;28;20111;-89
2024/01/05 10:10:13;;;;;;;3.05;2.40;;;;;;;4.27;100.00;99405.22;4977547;28;20297;-83
2024/01/05 10:12:40;;;;;;;3.13;2.45;;;;;;;4.30;100.00;99426.13;4950103;28;20539;-80
2024/01/05 10:15:06;;;;;;;2.88;2.13;;;;;;;4.44;100.00;99436.88;4968036;28;20034;-86
2024/01/05 10:17:35;;;;;;;4.85;2.30;;;;;;;4.44;100.00;99434.25;4982389;28;20141;-80
2024/01/05 10:20:15;;;;;;;4.40;2.22;;;;;;;4.46;100.00;99432.38;4980019;28;20444;-86
2024/01/05 10:22:43;;;;;;;3.08;2.13;;;;;;;4.48;100.00;99438.44;4960872;28;20046;-84
2024/01/05 10:25:22;;;;;;;2.58;2.20;;;;;;;4.42;100.00;99409.72;4976122;28;20141;-85
2024/01/05 10:27:49;;;;;;;4.32;2.20;;;;;;;4.55;100.00;99425.78;4975646;28;20104;-86
2024/01/05 10:30:30;;;;;;;2.40;2.20;;;;;;;4.62;100.00;99444.81;4979700;28;20530;-88
2024/01/05 10:33:07;;;;;;;3.30;2.00;;;;;;;4.59;100.00;99431.78;4978516;28;20078;-82
2024/01/05 10:35:34;;;;;;;2.15;2.00;;;;;;;4.59;100.00;99437.03;4969733;28;20125;-84
2024/01/05 10:38:10;;;;;;;3.45;2.20;;;;;;;4.56;100.00;99442.50;4969888;28;20465;-86
2024/01/05 10:40:36;;;;;;;2.53;2.20;;;;;;;4.54;100.00;99441.69;4973790;28;20538;-85
2024/01/05 10:43:16;;;;;;;5.18;2.20;;;;;;;4.53;100.00;99450.53;4972081;28;20031;-85
2024/01/05 10:45:42;;;;;;;2.67;2.03;;;;;;;4.55;100.00;99441.59;4982020;28;20563;-85
2024/01/05 10:48:11;;;;;;;2.33;2.13;;;;;;;4.56;100.00;99445.13;4981005;28;20061;-84
2024/01/05 10:50:37;;;;;;;4.70;2.40;;;;;;;4.49;100.00;99434.88;4980171;28;20476;-84
2024/01/05 10:53:04;;;;;;;4.13;2.30;;;;;;;4.53;100.00;99448.75;4978664;28;20125;-91
2024/01/05 10:55:32;;;;;;;3.90;2.10;;;;;;;4.56;100.00;99451.25;4969201;28;20096;-83
2024/01/05 10:58:00;;;;;;;2.35;1.83;;;;;;;4.50;100.00;99430.44;4979113;28;20034;-86
2024/01/05 11:00:26;;;;;;;2.90;2.40;;;;;;;4.57;100.00;99444.19;4969041;28;20062;-83
2024/01/05 11:03:06;;;;;;;2.67;1.90;;;;;;;4.50;100.00;99440.97;4980453;28;20034;-83
2024/01/05 11:05:32;;;;;;;2.60;2.20;;;;;;;4.54;100.00;99458.34;4977631;28;20750;-89
2024/01/05 11:08:00;;;;;;;2.78;2.10;;;;;;;4.58;100.00;99454.63;4964335;28;20030;-82
2024/01/05 11:10:53;;;;;;;2.63;2.00;;;;;;;4.59;100.00;99458.97;4972262;28;20042;-82
2024/01/05 11:13:35;;;;;;;3.45;2.60;;;;;;;4.63;100.00;99452.63;4978290;28;20030;-82
2024/01/05 11:16:35;;;;;;;2.80;2.50;;;;;;;4.65;100.00;99452.56;4964985;28;20041;-82
2024/01/05 11:19:03;;;;;;;2.35;2.15;;;;;;;4.65;100.00;99461.34;4932328;28;20055;-82
2024/01/05 11:21:54;;;;;;;2.15;1.88;;;;;;;4.69;100.00;99452.34;4939038;28;20035;-84
2024/01/05 11:24:20;;;;;;;2.67;2.10;;;;;;;4.66;100.00;99451.63;4941282;28;20035;-83
2024/01/05 11:26:45;;;;;;;3.55;2.20;;;;;;;4.68;100.00;99461.19;4926177;28;20083;-82